createdAt,value
2022-12-03T00:00:07.481Z,0.6
2022-12-03T00:02:02.625Z,0.6
2022-12-03T00:04:03.024Z,0.6
2022-12-03T00:06:02.553Z,0.5
2022-12-03T00:08:02.687Z,0.6
2022-12-03T00:10:02.930Z,0.6
2022-12-03T00:12:02.619Z,0.6
2022-12-03T00:14:02.620Z,0.5
2022-12-03T00:16:02.889Z,0.5
2022-12-03T00:18:03.121Z,0.5
2022-12-03T00:20:02.550Z,0.4
2022-12-03T00:22:03.445Z,0.4
2022-12-03T00:24:02.426Z,0.4
2022-12-03T00:26:02.554Z,0.4
2022-12-03T00:28:02.787Z,0.4
2022-12-03T00:30:02.546Z,0.4
2022-12-03T00:32:02.596Z,0.4
2022-12-03T00:34:03.377Z,0.4
2022-12-03T00:36:02.619Z,0.4
2022-12-03T00:38:02.547Z,0.4
2022-12-03T00:40:04.254Z,0.4
2022-12-03T00:42:02.583Z,0.4
2022-12-03T00:44:02.544Z,0.4
2022-12-03T00:46:03.456Z,0.3
2022-12-03T00:48:02.559Z,0.4
2022-12-03T00:50:03.139Z,0.4
2022-12-03T00:52:02.841Z,0.3
2022-12-03T00:54:02.536Z,0.3
2022-12-03T00:56:02.552Z,0.3
2022-12-03T00:58:03.476Z,0.3
2022-12-03T01:00:03.262Z,0.3
2022-12-03T01:02:02.744Z,0.3
2022-12-03T01:04:02.857Z,0.4
2022-12-03T01:06:02.648Z,0.3
2022-12-03T01:08:02.655Z,0.3
2022-12-03T01:10:03.549Z,0.3
2022-12-03T01:12:03.099Z,0.3
2022-12-03T01:14:03.559Z,0.3
2022-12-03T01:16:02.606Z,0.3
2022-12-03T01:18:03.144Z,0.3
2022-12-03T01:20:02.877Z,0.3
2022-12-03T01:22:04.061Z,0.3
2022-12-03T01:24:03.360Z,0.3
2022-12-03T01:26:02.679Z,0.3
2022-12-03T01:28:03.250Z,0.3
2022-12-03T01:30:03.144Z,0.3
2022-12-03T01:32:12.298Z,0.3
2022-12-03T01:34:02.768Z,0.3
2022-12-03T01:36:02.722Z,0.3
2022-12-03T01:38:02.793Z,0.3
2022-12-03T01:40:02.699Z,0.3
2022-12-03T01:42:03.192Z,0.3
2022-12-03T01:44:04.998Z,0.2
2022-12-03T01:46:04.089Z,0.3
2022-12-03T01:48:02.432Z,0.2
2022-12-03T01:50:07.313Z,0.2
2022-12-03T01:52:02.669Z,0.2
2022-12-03T01:54:03.811Z,0.2
2022-12-03T01:56:03.482Z,0.2
2022-12-03T01:58:03.831Z,0.2
2022-12-03T02:00:04.460Z,0.2
2022-12-03T02:02:09.305Z,0.2
2022-12-03T02:04:02.693Z,0.2
2022-12-03T02:06:02.582Z,0.1
2022-12-03T02:08:12.574Z,0.1
2022-12-03T02:10:05.164Z,0.1
2022-12-03T02:12:02.696Z,0.1
2022-12-03T02:14:06.880Z,0.1
2022-12-03T02:16:04.866Z,0.1
2022-12-03T02:18:03.075Z,0.1
2022-12-03T02:20:05.573Z,0.1
2022-12-03T02:22:10.355Z,0.1
2022-12-03T02:24:09.808Z,0.1
2022-12-03T02:26:02.587Z,0.1
2022-12-03T02:28:05.625Z,0.1
2022-12-03T02:30:03.889Z,0.1
2022-12-03T02:32:03.587Z,0.1
2022-12-03T02:34:06.322Z,0.2
2022-12-03T02:36:04.027Z,0.2
2022-12-03T02:38:10.315Z,0.1
2022-12-03T02:40:07.195Z,0.1
2022-12-03T02:42:12.486Z,0.1
2022-12-03T02:44:03.909Z,0.1
2022-12-03T02:46:05.432Z,0.2
2022-12-03T02:48:06.673Z,0.2
2022-12-03T02:50:03.527Z,0.1
2022-12-03T02:52:03.713Z,0.1
2022-12-03T02:54:03.895Z,0.1
2022-12-03T02:56:04.009Z,0.1
2022-12-03T02:58:05.600Z,0.1
2022-12-03T03:00:02.839Z,0.1
2022-12-03T03:02:03.343Z,0.1
2022-12-03T03:04:04.157Z,0.2
2022-12-03T03:06:03.610Z,0.2
2022-12-03T03:08:03.783Z,0.2
2022-12-03T03:10:04.097Z,0.2
2022-12-03T03:12:03.175Z,0.2
2022-12-03T03:14:03.676Z,0.2
2022-12-03T03:16:04.425Z,0.2
2022-12-03T03:18:03.203Z,0.3
2022-12-03T03:20:03.160Z,0.3
2022-12-03T03:22:03.426Z,0.3
2022-12-03T03:24:03.117Z,0.3
2022-12-03T03:26:06.652Z,0.4
2022-12-03T03:28:03.293Z,0.3
2022-12-03T03:30:02.616Z,0.3
2022-12-03T03:32:05.187Z,0.3
2022-12-03T03:34:03.493Z,0.3
2022-12-03T03:36:03.510Z,0.3
2022-12-03T03:38:03.940Z,0.3
2022-12-03T03:40:03.786Z,0.4
2022-12-03T03:42:02.944Z,0.3
2022-12-03T03:44:05.700Z,0.4
2022-12-03T03:46:04.295Z,0.4
2022-12-03T03:48:02.821Z,0.4
2022-12-03T03:50:02.934Z,0.4
2022-12-03T03:52:03.794Z,0.4
2022-12-03T03:54:04.350Z,0.4
2022-12-03T03:56:02.865Z,0.3
2022-12-03T03:58:03.391Z,0.4
2022-12-03T04:00:04.842Z,0.4
2022-12-03T04:02:02.662Z,0.4
2022-12-03T04:04:02.870Z,0.5
2022-12-03T04:06:02.950Z,0.5
2022-12-03T04:08:03.213Z,0.6
2022-12-03T04:10:12.640Z,0.6
2022-12-03T04:12:11.676Z,0.6
2022-12-03T04:14:03.604Z,0.6
2022-12-03T04:16:03.525Z,0.7
2022-12-03T04:18:12.214Z,0.7
2022-12-03T04:20:03.398Z,0.8
2022-12-03T04:22:11.839Z,0.8
2022-12-03T04:24:03.689Z,0.8
2022-12-03T04:26:11.633Z,0.7
2022-12-03T04:28:11.737Z,0.7
2022-12-03T04:30:03.830Z,0.7
2022-12-03T04:32:11.714Z,0.7
2022-12-03T04:34:12.430Z,0.7
2022-12-03T04:36:02.663Z,0.6
2022-12-03T04:38:02.595Z,0.6
2022-12-03T04:40:11.671Z,0.6
2022-12-03T04:42:02.761Z,0.6
2022-12-03T04:44:11.645Z,0.5
2022-12-03T04:46:03.331Z,0.5
2022-12-03T04:48:02.599Z,0.5
2022-12-03T04:50:02.582Z,0.4
2022-12-03T04:52:03.913Z,0.4
2022-12-03T04:54:03.194Z,0.4
2022-12-03T04:56:02.586Z,0.4
2022-12-03T04:58:03.476Z,0.4
2022-12-03T05:00:02.668Z,0.4
2022-12-03T05:02:04.264Z,0.3
2022-12-03T05:04:03.352Z,0.4
2022-12-03T05:06:02.602Z,0.3
2022-12-03T05:08:02.609Z,0.3
2022-12-03T05:10:04.034Z,0.3
2022-12-03T05:12:03.548Z,0.3
2022-12-03T05:14:02.858Z,0.3
2022-12-03T05:16:02.622Z,0.3
2022-12-03T05:18:02.727Z,0.3
2022-12-03T05:20:12.185Z,0.2
2022-12-03T05:22:02.865Z,0.2
2022-12-03T05:24:03.878Z,0.2
2022-12-03T05:26:03.219Z,0.2
2022-12-03T05:28:02.688Z,0.2
2022-12-03T05:30:02.659Z,0.2
2022-12-03T05:32:02.525Z,0.2
2022-12-03T05:34:02.808Z,0.2
2022-12-03T05:36:02.711Z,0.2
2022-12-03T05:38:03.096Z,0.2
2022-12-03T05:40:02.695Z,0.2
2022-12-03T05:42:11.616Z,0.2
2022-12-03T05:44:03.081Z,0.2
2022-12-03T05:46:02.963Z,0.2
2022-12-03T05:48:04.518Z,0.2
2022-12-03T05:50:02.555Z,0.2
2022-12-03T05:52:02.627Z,0.2
2022-12-03T05:54:03.244Z,0.1
2022-12-03T05:56:02.631Z,0.2
2022-12-03T05:58:03.072Z,0.2
2022-12-03T06:00:02.634Z,0.2
2022-12-03T06:02:02.816Z,0.2
2022-12-03T06:04:02.697Z,0.2
2022-12-03T06:06:02.551Z,0.1
2022-12-03T06:08:03.951Z,0.1
2022-12-03T06:10:03.118Z,0.1
2022-12-03T06:12:03.975Z,0.1
2022-12-03T06:14:02.533Z,0.1
2022-12-03T06:16:02.613Z,0.1
2022-12-03T06:18:02.548Z,0.1
2022-12-03T06:20:03.557Z,0.1
2022-12-03T06:22:02.754Z,0.1
2022-12-03T06:24:02.585Z,0.1
2022-12-03T06:26:02.501Z,0.1
2022-12-03T06:28:02.564Z,0.1
2022-12-03T06:30:02.647Z,0.1
2022-12-03T06:32:03.007Z,0.1
2022-12-03T06:34:02.756Z,0.1
2022-12-03T06:36:02.516Z,0.1
2022-12-03T06:38:03.196Z,0.1
2022-12-03T06:40:03.143Z,0.1
2022-12-03T06:42:02.549Z,0.1
2022-12-03T06:44:02.713Z,0.1
2022-12-03T06:46:02.851Z,0.1
2022-12-03T06:48:02.693Z,0.1
2022-12-03T06:50:02.690Z,0.1
2022-12-03T06:52:02.606Z,0.1
2022-12-03T06:54:03.815Z,0.1
2022-12-03T06:56:02.544Z,0.1
2022-12-03T06:58:02.761Z,0.1
2022-12-03T07:00:03.107Z,0.1
2022-12-03T07:02:02.603Z,0.1
2022-12-03T07:04:03.144Z,0.1
2022-12-03T07:06:03.267Z,0.0
2022-12-03T07:08:03.308Z,0.1
2022-12-03T07:10:02.891Z,0.1
2022-12-03T07:12:02.565Z,0.1
2022-12-03T07:14:05.379Z,0.0
2022-12-03T07:16:02.592Z,0.0
2022-12-03T07:18:03.614Z,0.0
2022-12-03T07:20:03.946Z,0.0
2022-12-03T07:22:03.959Z,0.0
2022-12-03T07:24:02.540Z,0.0
2022-12-03T07:26:02.534Z,-0.1
2022-12-03T07:28:03.054Z,0.0
2022-12-03T07:30:02.554Z,0.0
2022-12-03T07:32:03.269Z,0.0
2022-12-03T07:34:02.619Z,-0.1
2022-12-03T07:36:02.542Z,-0.1
2022-12-03T07:38:02.548Z,0.0
2022-12-03T07:40:04.266Z,0.0
2022-12-03T07:42:03.491Z,0.0
2022-12-03T07:44:03.104Z,-0.1
2022-12-03T07:46:02.625Z,0.0
2022-12-03T07:48:02.550Z,-0.1
2022-12-03T07:50:03.141Z,0.0
2022-12-03T07:52:02.737Z,0.0
2022-12-03T07:54:02.747Z,0.0
2022-12-03T07:56:03.385Z,0.0
2022-12-03T07:58:02.606Z,0.0
2022-12-03T08:00:04.966Z,0.0
2022-12-03T08:02:03.287Z,0.0
2022-12-03T08:04:02.643Z,0.0
2022-12-03T08:06:02.862Z,0.1
2022-12-03T08:08:02.872Z,0.1
2022-12-03T08:10:02.583Z,0.1
2022-12-03T08:12:06.862Z,0.1
2022-12-03T08:14:07.844Z,0.1
2022-12-03T08:16:14.687Z,0.1
2022-12-03T08:18:12.986Z,0.1
2022-12-03T08:20:06.041Z,0.1
2022-12-03T08:22:02.611Z,0.1
2022-12-03T08:24:14.539Z,0.0
2022-12-03T08:26:02.693Z,0.1
2022-12-03T08:28:11.788Z,0.0
2022-12-03T08:30:05.223Z,0.0
2022-12-03T08:32:02.824Z,0.0
2022-12-03T08:34:16.904Z,0.0
2022-12-03T08:36:08.694Z,0.0
2022-12-03T08:38:10.379Z,0.0
2022-12-03T08:40:02.811Z,0.0
2022-12-03T08:42:21.672Z,0.0
2022-12-03T08:44:10.057Z,0.0
2022-12-03T08:46:02.879Z,0.0
2022-12-03T08:48:06.341Z,-0.1
2022-12-03T08:50:21.661Z,0.0
2022-12-03T08:52:13.710Z,0.0
2022-12-03T08:54:08.925Z,-0.1
2022-12-03T08:56:06.216Z,0.0
2022-12-03T08:58:18.574Z,-0.1
2022-12-03T09:00:18.068Z,-0.1
2022-12-03T09:02:02.512Z,-0.1
2022-12-03T09:04:21.760Z,-0.1
2022-12-03T09:06:03.150Z,-0.1
2022-12-03T09:08:03.042Z,-0.1
2022-12-03T09:10:02.634Z,-0.1
2022-12-03T09:12:03.514Z,-0.1
2022-12-03T09:14:02.507Z,-0.1
2022-12-03T09:16:02.591Z,-0.1
2022-12-03T09:18:02.524Z,-0.1
2022-12-03T09:20:03.680Z,-0.1
2022-12-03T09:22:02.588Z,-0.1
2022-12-03T09:24:02.867Z,-0.1
2022-12-03T09:26:03.082Z,-0.1
2022-12-03T09:28:02.834Z,-0.1
2022-12-03T09:30:04.099Z,-0.1
2022-12-03T09:32:02.650Z,-0.1
2022-12-03T09:34:03.155Z,-0.1
2022-12-03T09:36:02.952Z,-0.1
2022-12-03T09:38:02.726Z,-0.1
2022-12-03T09:40:02.585Z,-0.1
2022-12-03T09:42:03.208Z,-0.1
2022-12-03T09:44:05.273Z,-0.1
2022-12-03T09:46:05.224Z,-0.1
2022-12-03T09:48:04.530Z,-0.1
2022-12-03T09:50:03.420Z,-0.1
2022-12-03T09:52:05.515Z,-0.1
2022-12-03T09:54:05.445Z,-0.1
2022-12-03T09:56:02.676Z,-0.1
2022-12-03T09:58:03.068Z,-0.1
2022-12-03T10:00:02.820Z,-0.1
2022-12-03T10:02:03.993Z,-0.1
2022-12-03T10:04:03.378Z,-0.1
2022-12-03T10:06:03.215Z,0.0
2022-12-03T10:08:05.692Z,0.0
2022-12-03T10:10:03.237Z,0.0
2022-12-03T10:12:02.776Z,0.0
2022-12-03T10:14:02.655Z,0.0
2022-12-03T10:16:02.778Z,0.0
2022-12-03T10:18:16.643Z,0.0
2022-12-03T10:20:02.861Z,0.1
2022-12-03T10:22:02.629Z,0.1
2022-12-03T10:24:21.193Z,0.1
2022-12-03T10:26:04.186Z,0.1
2022-12-03T10:28:04.932Z,0.1
2022-12-03T10:30:14.154Z,0.1
2022-12-03T10:32:06.127Z,0.1
2022-12-03T10:34:02.598Z,0.1
2022-12-03T10:36:17.133Z,0.1
2022-12-03T10:38:04.480Z,0.1
2022-12-03T10:40:08.122Z,0.1
2022-12-03T10:42:15.048Z,0.1
2022-12-03T10:44:14.883Z,0.0
2022-12-03T10:46:13.261Z,0.1
2022-12-03T10:48:06.300Z,0.0
2022-12-03T10:50:05.304Z,0.1
2022-12-03T10:52:03.669Z,0.1
2022-12-03T10:54:03.663Z,0.0
2022-12-03T10:56:06.178Z,0.0
2022-12-03T10:58:02.695Z,0.0
2022-12-03T11:00:02.988Z,0.1
2022-12-03T11:02:08.386Z,0.0
2022-12-03T11:04:05.504Z,0.0
2022-12-03T11:06:03.981Z,0.0
2022-12-03T11:08:04.136Z,0.0
2022-12-03T11:10:02.647Z,0.0
2022-12-03T11:12:06.582Z,-0.1
2022-12-03T11:14:03.980Z,0.0
2022-12-03T11:16:05.273Z,0.0
2022-12-03T11:18:02.599Z,0.0
2022-12-03T11:20:02.544Z,0.0
2022-12-03T11:22:21.668Z,0.0
2022-12-03T11:24:19.474Z,0.0
2022-12-03T11:26:02.576Z,0.1
2022-12-03T11:28:21.656Z,0.0
2022-12-03T11:30:02.644Z,0.0
2022-12-03T11:32:02.782Z,0.0
2022-12-03T11:34:21.791Z,0.0
2022-12-03T11:36:14.855Z,0.0
2022-12-03T11:38:21.603Z,0.0
2022-12-03T11:40:14.047Z,0.0
2022-12-03T11:42:24.870Z,0.1
2022-12-03T11:44:21.614Z,0.0
2022-12-03T11:46:09.828Z,0.0
2022-12-03T11:48:11.024Z,0.0
2022-12-03T11:50:12.624Z,0.0
2022-12-03T11:52:12.923Z,0.1
2022-12-03T11:54:02.788Z,0.1
2022-12-03T11:56:08.478Z,0.0
2022-12-03T11:58:05.358Z,0.0
2022-12-03T12:00:10.203Z,0.0
2022-12-03T12:02:20.171Z,0.0
2022-12-03T12:04:03.352Z,0.0
2022-12-03T12:06:04.388Z,0.0
2022-12-03T12:08:04.207Z,0.0
2022-12-03T12:10:04.238Z,0.0
2022-12-03T12:12:20.585Z,0.1
2022-12-03T12:14:04.789Z,0.1
2022-12-03T12:16:05.577Z,0.1
2022-12-03T12:18:21.582Z,0.1
2022-12-03T12:20:13.786Z,0.1
2022-12-03T12:22:14.830Z,0.1
2022-12-03T12:24:21.647Z,0.1
2022-12-03T12:26:06.947Z,0.1
2022-12-03T12:28:02.371Z,0.1
2022-12-03T12:30:05.876Z,0.1
2022-12-03T12:32:12.163Z,0.1
2022-12-03T12:34:02.565Z,0.1
2022-12-03T12:36:09.566Z,0.1
2022-12-03T12:38:12.933Z,0.1
2022-12-03T12:40:12.097Z,0.1
2022-12-03T12:42:03.366Z,0.1
2022-12-03T12:44:03.381Z,0.1
2022-12-03T12:46:46.089Z,0.1
2022-12-03T12:48:15.382Z,0.1
2022-12-03T12:50:09.928Z,0.1
2022-12-03T12:52:02.616Z,0.1
2022-12-03T12:54:02.752Z,0.1
2022-12-03T12:56:09.297Z,0.1
2022-12-03T12:58:08.031Z,0.1
2022-12-03T13:00:05.055Z,0.1
2022-12-03T13:02:08.592Z,0.1
2022-12-03T13:04:07.265Z,0.1
2022-12-03T13:06:04.019Z,0.1
2022-12-03T13:08:07.260Z,0.1
2022-12-03T13:10:21.659Z,0.1
2022-12-03T13:12:04.245Z,0.1
2022-12-03T13:14:05.977Z,0.1
2022-12-03T13:16:06.129Z,0.1
2022-12-03T13:18:20.589Z,0.1
2022-12-03T13:20:13.761Z,0.1
2022-12-03T13:22:11.249Z,0.1
2022-12-03T13:24:03.396Z,0.2
2022-12-03T13:26:28.520Z,0.2
2022-12-03T13:28:02.606Z,0.2
2022-12-03T13:30:12.381Z,0.2
2022-12-03T13:32:12.206Z,0.1
2022-12-03T13:34:11.784Z,0.1
2022-12-03T13:36:02.595Z,0.1
2022-12-03T13:38:03.528Z,0.1
2022-12-03T13:40:18.665Z,0.1
2022-12-03T13:42:25.522Z,0.1
2022-12-03T13:44:10.362Z,0.1
2022-12-03T13:46:02.626Z,0.1
2022-12-03T13:48:06.959Z,0.1
2022-12-03T13:50:07.751Z,0.1
2022-12-03T13:52:02.642Z,0.1
2022-12-03T13:54:03.272Z,0.1
2022-12-03T13:56:18.668Z,0.1
2022-12-03T13:58:02.619Z,0.1
2022-12-03T14:00:02.665Z,0.1
2022-12-03T14:02:02.615Z,0.1
2022-12-03T14:04:02.827Z,0.2
2022-12-03T14:06:03.368Z,0.1
2022-12-03T14:08:02.808Z,0.1
2022-12-03T14:10:02.611Z,0.1
2022-12-03T14:12:12.255Z,0.1
2022-12-03T14:14:02.905Z,0.1
2022-12-03T14:16:02.681Z,0.1
2022-12-03T14:18:02.674Z,0.1
2022-12-03T14:20:04.137Z,0.1
2022-12-03T14:22:02.704Z,0.1
2022-12-03T14:24:02.598Z,0.1
2022-12-03T14:26:02.801Z,0.1
2022-12-03T14:28:02.591Z,0.1
2022-12-03T14:30:05.977Z,0.1
2022-12-03T14:32:02.753Z,0.1
2022-12-03T14:34:03.102Z,0.1
2022-12-03T14:36:02.609Z,0.1
2022-12-03T14:38:02.614Z,0.1
2022-12-03T14:40:03.402Z,0.1
2022-12-03T14:42:11.860Z,0.1
2022-12-03T14:44:02.546Z,0.1
2022-12-03T14:46:02.775Z,0.1
2022-12-03T14:48:02.755Z,0.1
2022-12-03T14:50:04.697Z,0.1
2022-12-03T14:52:03.191Z,0.1
2022-12-03T14:54:02.707Z,0.1
2022-12-03T14:56:02.732Z,0.1
2022-12-03T14:58:03.253Z,0.1
2022-12-03T15:00:03.371Z,0.1
2022-12-03T15:02:02.672Z,0.1
2022-12-03T15:04:02.600Z,0.1
2022-12-03T15:06:02.748Z,0.1
2022-12-03T15:08:02.651Z,0.1
2022-12-03T15:10:02.615Z,0.1
2022-12-03T15:12:02.543Z,0.1
2022-12-03T15:14:02.772Z,0.1
2022-12-03T15:16:02.624Z,0.1
2022-12-03T15:18:03.261Z,0.1
2022-12-03T15:20:03.432Z,0.1
2022-12-03T15:22:02.846Z,0.1
2022-12-03T15:24:03.235Z,0.1
2022-12-03T15:26:02.555Z,0.1
2022-12-03T15:28:04.761Z,0.1
2022-12-03T15:30:02.868Z,0.1
2022-12-03T15:32:02.933Z,0.1
2022-12-03T15:34:02.588Z,0.1
2022-12-03T15:36:02.561Z,0.1
2022-12-03T15:38:03.117Z,0.1
2022-12-03T15:40:02.678Z,0.1
2022-12-03T15:42:02.863Z,0.1
2022-12-03T15:44:03.319Z,0.1
2022-12-03T15:46:02.623Z,0.1
2022-12-03T15:48:03.593Z,0.1
2022-12-03T15:50:02.603Z,0.1
2022-12-03T15:52:04.189Z,0.1
2022-12-03T15:54:02.827Z,0.1
2022-12-03T15:56:03.539Z,0.1
2022-12-03T15:58:02.631Z,0.1
2022-12-03T16:00:03.451Z,0.1
2022-12-03T16:02:03.236Z,0.1
2022-12-03T16:04:02.845Z,0.1
2022-12-03T16:06:03.528Z,0.1
2022-12-03T16:08:02.936Z,0.1
2022-12-03T16:10:03.406Z,0.1
2022-12-03T16:12:02.568Z,0.1
2022-12-03T16:14:02.566Z,0.1
2022-12-03T16:16:02.691Z,0.1
2022-12-03T16:18:03.968Z,0.1
2022-12-03T16:20:02.727Z,0.1
2022-12-03T16:22:03.969Z,0.1
2022-12-03T16:24:03.052Z,0.1
2022-12-03T16:26:02.582Z,0.2
2022-12-03T16:28:03.435Z,0.2
2022-12-03T16:30:03.009Z,0.2
2022-12-03T16:32:02.901Z,0.2
2022-12-03T16:34:03.110Z,0.2
2022-12-03T16:36:02.577Z,0.2
2022-12-03T16:38:03.189Z,0.2
2022-12-03T16:40:03.213Z,0.2
2022-12-03T16:42:04.441Z,0.2
2022-12-03T16:44:03.236Z,0.2
2022-12-03T16:46:12.263Z,0.2
2022-12-03T16:48:02.569Z,0.2
2022-12-03T16:50:04.868Z,0.2
2022-12-03T16:52:03.047Z,0.2
2022-12-03T16:54:02.783Z,0.2
2022-12-03T16:56:03.586Z,0.3
2022-12-03T16:58:02.631Z,0.3
2022-12-03T17:00:03.177Z,0.3
2022-12-03T17:02:02.878Z,0.3
2022-12-03T17:04:02.576Z,0.3
2022-12-03T17:06:03.905Z,0.3
2022-12-03T17:08:02.908Z,0.3
2022-12-03T17:10:02.651Z,0.3
2022-12-03T17:12:03.315Z,0.4
2022-12-03T17:14:02.596Z,0.4
2022-12-03T17:16:02.685Z,0.4
2022-12-03T17:18:03.686Z,0.4
2022-12-03T17:20:03.292Z,0.4
2022-12-03T17:22:04.155Z,0.4
2022-12-03T17:24:03.474Z,0.4
2022-12-03T17:26:02.500Z,0.4
2022-12-03T17:28:02.728Z,0.4
2022-12-03T17:30:03.040Z,0.4
2022-12-03T17:32:02.938Z,0.4
2022-12-03T17:34:02.565Z,0.5
2022-12-03T17:36:03.165Z,0.5
2022-12-03T17:38:02.720Z,0.5
2022-12-03T17:40:04.145Z,0.5
2022-12-03T17:42:02.721Z,0.6
2022-12-03T17:44:08.851Z,0.6
2022-12-03T17:46:02.689Z,0.7
2022-12-03T17:48:02.607Z,0.8
2022-12-03T17:50:02.664Z,0.9
2022-12-03T17:52:02.898Z,0.9
2022-12-03T17:54:02.770Z,0.9
2022-12-03T17:56:02.770Z,0.9
2022-12-03T17:58:02.565Z,1.0
2022-12-03T18:00:03.780Z,1.0
2022-12-03T18:02:02.616Z,0.9
2022-12-03T18:04:03.367Z,0.9
2022-12-03T18:06:04.040Z,1.1
2022-12-03T18:08:02.797Z,1.3
2022-12-03T18:10:02.623Z,1.3
2022-12-03T18:12:02.777Z,1.2
2022-12-03T18:14:02.639Z,1.2
2022-12-03T18:16:03.586Z,1.2
2022-12-03T18:18:02.746Z,1.3
2022-12-03T18:20:03.013Z,1.3
2022-12-03T18:22:02.567Z,1.3
2022-12-03T18:24:03.483Z,1.3
2022-12-03T18:26:03.010Z,1.3
2022-12-03T18:28:02.698Z,1.3
2022-12-03T18:30:02.774Z,1.3
2022-12-03T18:32:02.935Z,1.2
2022-12-03T18:34:02.573Z,1.2
2022-12-03T18:36:02.765Z,1.3
2022-12-03T18:38:03.465Z,1.2
2022-12-03T18:40:12.073Z,1.3
2022-12-03T18:42:13.689Z,1.3
2022-12-03T18:44:07.030Z,1.3
2022-12-03T18:46:03.997Z,1.4
2022-12-03T18:48:02.962Z,1.4
2022-12-03T18:50:02.983Z,1.5
2022-12-03T18:52:02.564Z,1.5
2022-12-03T18:54:02.877Z,1.6
2022-12-03T18:56:02.768Z,1.6
2022-12-03T18:58:02.635Z,1.7
2022-12-03T19:00:02.873Z,1.8
2022-12-03T19:02:02.829Z,1.9
2022-12-03T19:04:02.637Z,1.9
2022-12-03T19:06:02.776Z,2.1
2022-12-03T19:08:04.064Z,2.1
2022-12-03T19:10:03.155Z,2.2
2022-12-03T19:12:03.359Z,2.2
2022-12-03T19:14:03.098Z,2.3
2022-12-03T19:16:04.567Z,2.3
2022-12-03T19:18:03.324Z,2.3
2022-12-03T19:20:03.003Z,2.4
2022-12-03T19:22:02.846Z,2.4
2022-12-03T19:24:24.383Z,2.4
2022-12-03T19:26:05.468Z,2.5
2022-12-03T19:28:02.607Z,2.5
2022-12-03T19:30:02.782Z,2.5
2022-12-03T19:32:02.905Z,2.5
2022-12-03T19:34:03.745Z,2.5
2022-12-03T19:36:05.942Z,2.6
2022-12-03T19:38:02.569Z,2.6
2022-12-03T19:40:03.307Z,2.6
2022-12-03T19:42:03.165Z,2.6
2022-12-03T19:44:06.451Z,2.7
2022-12-03T19:46:05.347Z,2.7
2022-12-03T19:48:02.624Z,2.7
2022-12-03T19:50:03.172Z,2.6
2022-12-03T19:52:03.135Z,2.6
2022-12-03T19:54:03.803Z,2.7
2022-12-03T19:56:03.492Z,2.7
2022-12-03T19:58:02.752Z,2.7
2022-12-03T20:00:03.491Z,2.7
2022-12-03T20:02:02.706Z,2.7
2022-12-03T20:04:03.946Z,2.8
2022-12-03T20:06:02.705Z,2.8
2022-12-03T20:08:03.479Z,2.8
2022-12-03T20:10:02.606Z,2.8
2022-12-03T20:12:02.593Z,2.8
2022-12-03T20:14:05.505Z,2.8
2022-12-03T20:16:03.539Z,2.7
2022-12-03T20:18:03.388Z,2.7
2022-12-03T20:20:03.976Z,2.7
2022-12-03T20:22:03.113Z,2.7
2022-12-03T20:24:03.046Z,2.7
2022-12-03T20:26:02.646Z,2.7
2022-12-03T20:28:02.576Z,2.6
2022-12-03T20:30:03.556Z,2.6
2022-12-03T20:32:03.544Z,2.5
2022-12-03T20:34:05.147Z,2.5
2022-12-03T20:36:02.638Z,2.5
2022-12-03T20:38:03.171Z,2.4
2022-12-03T20:40:03.315Z,2.4
2022-12-03T20:42:02.975Z,2.4
2022-12-03T20:44:03.420Z,2.4
2022-12-03T20:46:07.019Z,2.4
2022-12-03T20:48:03.139Z,2.4
2022-12-03T20:50:03.144Z,2.4
2022-12-03T20:52:04.445Z,2.4
2022-12-03T20:54:03.376Z,2.5
2022-12-03T20:56:04.380Z,2.6
2022-12-03T20:58:03.161Z,2.7
2022-12-03T21:00:02.739Z,2.7
2022-12-03T21:02:02.743Z,2.7
2022-12-03T21:04:04.270Z,2.8
2022-12-03T21:06:03.486Z,2.8
2022-12-03T21:08:02.770Z,2.8
2022-12-03T21:10:02.643Z,2.9
2022-12-03T21:12:02.620Z,2.9
2022-12-03T21:14:04.204Z,2.9
2022-12-03T21:16:05.935Z,3.0
2022-12-03T21:18:02.789Z,3.0
2022-12-03T21:20:02.839Z,3.1
2022-12-03T21:22:02.579Z,3.1
2022-12-03T21:24:02.624Z,3.1
2022-12-03T21:26:05.485Z,3.1
2022-12-03T21:28:03.663Z,3.0
2022-12-03T21:30:02.834Z,2.9
2022-12-03T21:32:03.311Z,2.9
2022-12-03T21:34:04.600Z,3.0
2022-12-03T21:36:04.756Z,3.0
2022-12-03T21:38:03.323Z,3.0
2022-12-03T21:40:02.770Z,3.0
2022-12-03T21:42:18.647Z,2.9
2022-12-03T21:44:02.682Z,2.9
2022-12-03T21:47:09.264Z,2.9
2022-12-03T21:48:02.602Z,2.9
2022-12-03T21:50:02.952Z,2.9
2022-12-03T21:52:02.617Z,2.9
2022-12-03T21:54:02.950Z,2.8
2022-12-03T21:56:07.280Z,2.8
2022-12-03T21:58:02.614Z,2.9
2022-12-03T22:00:02.673Z,2.9
2022-12-03T22:02:03.167Z,2.9
2022-12-03T22:04:02.575Z,2.9
2022-12-03T22:06:02.726Z,2.9
2022-12-03T22:08:02.757Z,2.9
2022-12-03T22:10:02.813Z,2.9
2022-12-03T22:12:02.600Z,2.9
2022-12-03T22:14:04.267Z,2.9
2022-12-03T22:16:06.717Z,2.9
2022-12-03T22:18:03.868Z,2.9
2022-12-03T22:20:04.122Z,2.9
2022-12-03T22:22:02.658Z,2.9
2022-12-03T22:24:02.817Z,2.9
2022-12-03T22:26:06.099Z,2.9
2022-12-03T22:28:02.624Z,2.9
2022-12-03T22:30:03.490Z,2.8
2022-12-03T22:32:02.612Z,2.8
2022-12-03T22:34:02.688Z,2.8
2022-12-03T22:36:05.288Z,2.9
2022-12-03T22:38:02.738Z,2.9
2022-12-03T22:40:02.988Z,2.9
2022-12-03T22:42:02.712Z,2.9
2022-12-03T22:44:02.582Z,2.9
2022-12-03T22:46:02.622Z,2.8
2022-12-03T22:48:04.285Z,2.8
2022-12-03T22:50:02.585Z,2.8
2022-12-03T22:52:02.823Z,2.8
2022-12-03T22:54:02.627Z,2.7
2022-12-03T22:56:02.718Z,2.7
2022-12-03T22:58:02.632Z,2.7
2022-12-03T23:00:02.759Z,2.7
2022-12-03T23:02:02.558Z,2.7
2022-12-03T23:04:04.329Z,2.7
2022-12-03T23:06:10.202Z,2.7
2022-12-03T23:08:02.697Z,2.7
2022-12-03T23:10:02.627Z,2.7
2022-12-03T23:12:02.811Z,2.7
2022-12-03T23:14:03.726Z,2.7
2022-12-03T23:16:04.262Z,2.7
2022-12-03T23:18:02.543Z,2.7
2022-12-03T23:20:03.756Z,2.8
2022-12-03T23:22:02.577Z,2.8
2022-12-03T23:24:04.456Z,2.7
2022-12-03T23:26:05.426Z,2.8
2022-12-03T23:28:02.832Z,2.8
2022-12-03T23:30:03.308Z,2.8
2022-12-03T23:32:02.754Z,2.7
2022-12-03T23:34:03.546Z,2.7
2022-12-03T23:36:05.800Z,2.7
2022-12-03T23:38:02.597Z,2.7
2022-12-03T23:40:03.850Z,2.6
2022-12-03T23:42:03.407Z,2.5
2022-12-03T23:44:02.712Z,2.4
2022-12-03T23:46:04.323Z,2.5
2022-12-03T23:48:02.809Z,2.4
2022-12-03T23:50:02.596Z,2.4
2022-12-03T23:52:03.426Z,2.4
2022-12-03T23:54:03.144Z,2.4
2022-12-03T23:56:06.175Z,2.3
2022-12-03T23:58:02.568Z,2.2
